Time;durP1;ratioP1;P1;durP2;ratioP2;P2;SDS_P1;SDS_P2;PMS_P1;PMS_P2;Temp;Humidity;BMP_temperature;BMP_pressure;BME280_temperature;BME280_humidity;BME280_pressure;Samples;Min_cycle;Max_cycle;Signal;HPM_P1;HPM_P2
2021/07/02 00:00:13;;;;;;;;;;;15.10;99.90;;;;;;5098933;28;19934;-80
2021/07/02 00:02:39;;;;;;;;;;;15.10;99.90;;;;;;5098271;28;19912;-81
2021/07/02 00:05:06;;;;;;;;;;;15.00;99.90;;;;;;5098821;28;19904;-80
2021/07/02 00:07:31;;;;;;;;;;;15.00;99.90;;;;;;5098328;28;19916;-80
2021/07/02 00:09:57;;;;;;;;;;;14.90;99.90;;;;;;5098344;28;19908;-80
2021/07/02 00:12:23;;;;;;;;;;;14.90;99.90;;;;;;5098063;28;19896;-80
2021/07/02 00:14:48;;;;;;;;;;;14.90;99.90;;;;;;5098117;28;19935;-80
2021/07/02 00:17:14;;;;;;;;;;;14.90;99.90;;;;;;5097275;28;19908;-80
2021/07/02 00:19:39;;;;;;;;;;;14.90;99.90;;;;;;5098241;28;19909;-80
2021/07/02 00:22:05;;;;;;;;;;;14.90;99.90;;;;;;5097756;28;19904;-80
2021/07/02 00:24:30;;;;;;;;;;;15.00;99.90;;;;;;5098020;28;19919;-80
2021/07/02 00:26:56;;;;;;;;;;;15.00;99.90;;;;;;5098047;28;19896;-80
2021/07/02 00:29:22;;;;;;;;;;;15.20;99.90;;;;;;5098040;28;19905;-79
2021/07/02 00:31:48;;;;;;;;;;;15.20;99.90;;;;;;5098073;28;19909;-80
2021/07/02 00:34:14;;;;;;;;;;;15.20;99.90;;;;;;5098068;28;19912;-80
2021/07/02 00:36:39;;;;;;;;;;;15.30;99.90;;;;;;5097946;28;19918;-80
2021/07/02 00:39:07;;;;;;;;;;;15.30;99.90;;;;;;5097981;28;19904;-80
2021/07/02 00:41:33;;;;;;;;;;;15.30;99.90;;;;;;5097852;28;19900;-80
2021/07/02 00:43:59;;;;;;;;;;;15.40;99.90;;;;;;5097695;28;19920;-80
2021/07/02 00:46:25;;;;;;;;;;;15.40;99.90;;;;;;5097822;28;19897;-80
2021/07/02 00:48:51;;;;;;;;;;;15.40;99.90;;;;;;5081023;28;19896;-81
2021/07/02 00:51:17;;;;;;;;;;;15.40;99.90;;;;;;5097933;28;19926;-81
2021/07/02 00:53:43;;;;;;;;;;;15.40;99.90;;;;;;5097976;28;19911;-80
2021/07/02 00:56:09;;;;;;;;;;;15.40;99.90;;;;;;5098013;28;19931;-81
2021/07/02 00:58:35;;;;;;;;;;;15.50;99.90;;;;;;5097727;28;19917;-80
2021/07/02 01:01:03;;;;;;;;;;;15.50;99.90;;;;;;5097067;28;19926;-81
2021/07/02 01:03:29;;;;;;;;;;;15.50;99.90;;;;;;5097162;28;19930;-81
2021/07/02 01:05:55;;;;;;;;;;;15.50;99.90;;;;;;5098250;28;19931;-80
2021/07/02 01:08:21;;;;;;;;;;;15.50;99.90;;;;;;5097796;28;19897;-81
2021/07/02 01:10:47;;;;;;;;;;;15.40;99.90;;;;;;5097864;28;19955;-81
2021/07/02 01:13:14;;;;;;;;;;;15.50;99.90;;;;;;5097433;28;19904;-81
2021/07/02 01:15:40;;;;;;;;;;;15.50;99.90;;;;;;5095688;28;19942;-80
2021/07/02 01:18:06;;;;;;;;;;;15.50;99.90;;;;;;5097863;28;19901;-81
2021/07/02 01:20:32;;;;;;;;;;;15.40;99.90;;;;;;5098155;28;19901;-81
2021/07/02 01:22:58;;;;;;;;;;;15.40;99.90;;;;;;5098014;28;19916;-81
2021/07/02 01:25:28;;;;;;;;;;;15.40;99.90;;;;;;5097685;28;19939;-80
2021/07/02 01:27:54;;;;;;;;;;;15.40;99.90;;;;;;5098356;28;19897;-81
2021/07/02 01:30:20;;;;;;;;;;;15.30;99.90;;;;;;5101293;28;19921;-81
2021/07/02 01:32:46;;;;;;;;;;;15.30;99.90;;;;;;5101360;28;19903;-81
2021/07/02 01:35:11;;;;;;;;;;;15.30;99.90;;;;;;5101115;28;19897;-81
2021/07/02 01:37:38;;;;;;;;;;;15.30;99.90;;;;;;5101152;28;19932;-81
2021/07/02 01:40:04;;;;;;;;;;;15.30;99.90;;;;;;5100989;28;19917;-80
2021/07/02 01:42:30;;;;;;;;;;;15.40;99.90;;;;;;5083883;28;19908;-80
2021/07/02 01:44:56;;;;;;;;;;;15.30;99.90;;;;;;5100934;28;19908;-80
2021/07/02 01:47:22;;;;;;;;;;;15.30;99.90;;;;;;5100811;28;19903;-81
2021/07/02 01:49:48;;;;;;;;;;;15.30;99.90;;;;;;5100794;28;19896;-81
2021/07/02 01:52:15;;;;;;;;;;;15.30;99.90;;;;;;5100754;28;19905;-81
2021/07/02 01:54:41;;;;;;;;;;;15.10;99.90;;;;;;5101160;28;19903;-80
2021/07/02 01:57:16;;;;;;;;;;;15.20;99.90;;;;;;5100892;28;19900;-81
2021/07/02 01:59:42;;;;;;;;;;;15.10;99.90;;;;;;5101372;28;19920;-80
2021/07/02 02:02:07;;;;;;;;;;;15.10;99.90;;;;;;5100902;28;19905;-80
2021/07/02 02:04:33;;;;;;;;;;;15.20;99.90;;;;;;5100585;28;19897;-80
2021/07/02 02:06:58;;;;;;;;;;;15.20;99.90;;;;;;5100712;28;19912;-81
2021/07/02 02:09:24;;;;;;;;;;;15.20;99.90;;;;;;5100590;28;19908;-80
2021/07/02 02:11:50;;;;;;;;;;;15.20;99.90;;;;;;5099961;28;19896;-81
2021/07/02 02:14:16;;;;;;;;;;;15.20;99.90;;;;;;5100895;28;19897;-80
2021/07/02 02:16:43;;;;;;;;;;;15.10;99.90;;;;;;5100962;28;20269;-81
2021/07/02 02:19:10;;;;;;;;;;;15.20;99.90;;;;;;5083501;28;19908;-81
2021/07/02 02:21:37;;;;;;;;;;;15.20;99.90;;;;;;5100131;28;19896;-81
2021/07/02 02:24:03;;;;;;;;;;;15.20;99.90;;;;;;5100055;28;19912;-81
2021/07/02 02:26:29;;;;;;;;;;;15.10;99.90;;;;;;5100274;28;19917;-81
2021/07/02 02:28:55;;;;;;;;;;;15.10;99.90;;;;;;5100162;28;19974;-81
2021/07/02 02:31:27;;;;;;;;;;;15.10;99.90;;;;;;5099949;28;19944;-81
2021/07/02 02:33:54;;;;;;;;;;;15.10;99.90;;;;;;5100196;28;19896;-81
2021/07/02 06:03:47;;;;;;;;;;;18.40;99.90;;;;;;5072915;28;19924;-87
2021/07/02 06:06:12;;;;;;;;;;;18.70;99.90;;;;;;5079881;28;19913;-85
2021/07/02 06:08:41;;;;;;;;;;;19.00;99.90;;;;;;5080527;28;19908;-86
2021/07/02 06:11:06;;;;;;;;;;;19.30;99.90;;;;;;5077806;28;19974;-85
2021/07/02 06:13:32;;;;;;;;;;;19.50;99.90;;;;;;5077024;28;19916;-85
2021/07/02 06:16:00;;;;;;;;;;;19.60;99.90;;;;;;5072599;28;20344;-86
2021/07/02 06:18:26;;;;;;;;;;;19.70;99.90;;;;;;5073923;28;19919;-85
2021/07/02 06:20:52;;;;;;;;;;;19.90;99.90;;;;;;5074664;28;19912;-85
2021/07/02 06:23:21;;;;;;;;;;;20.10;99.90;;;;;;5072996;28;19977;-87
2021/07/02 06:25:47;;;;;;;;;;;20.30;99.90;;;;;;5073547;28;19916;-85
2021/07/02 06:28:13;;;;;;;;;;;20.50;99.90;;;;;;5073183;28;20286;-85
2021/07/02 06:30:39;;;;;;;;;;;20.70;99.90;;;;;;5072979;28;19954;-85
2021/07/02 06:33:04;;;;;;;;;;;20.90;99.90;;;;;;5072857;28;19916;-86
2021/07/02 06:35:30;;;;;;;;;;;21.20;99.90;;;;;;5073027;28;20363;-86
2021/07/02 06:37:55;;;;;;;;;;;21.50;99.90;;;;;;5073017;28;19918;-85
2021/07/02 06:40:21;;;;;;;;;;;21.70;99.90;;;;;;5072772;28;19915;-86
2021/07/02 06:42:46;;;;;;;;;;;22.70;99.90;;;;;;5072404;28;19912;-85
2021/07/02 06:45:12;;;;;;;;;;;23.70;99.90;;;;;;5072669;28;20374;-86
2021/07/02 06:47:57;;;;;;;;;;;23.10;99.90;;;;;;5074227;28;19909;-85
2021/07/02 06:50:23;;;;;;;;;;;22.70;99.90;;;;;;5072370;28;20307;-86
2021/07/02 06:52:49;;;;;;;;;;;22.70;99.90;;;;;;5073621;28;19908;-86
2021/07/02 06:55:14;;;;;;;;;;;22.80;99.90;;;;;;5072405;28;19915;-85
2021/07/02 06:57:40;;;;;;;;;;;22.80;99.90;;;;;;5073715;28;20007;-85
2021/07/02 07:00:06;;;;;;;;;;;22.90;99.90;;;;;;5072353;28;19930;-85
2021/07/02 07:02:31;;;;;;;;;;;22.80;99.90;;;;;;5072082;28;20572;-85
2021/07/02 07:04:56;;;;;;;;;;;22.90;99.90;;;;;;5072232;28;19966;-85
2021/07/02 07:07:22;;;;;;;;;;;22.90;99.90;;;;;;5073464;28;19909;-86
2021/07/02 07:09:47;;;;;;;;;;;23.10;99.90;;;;;;5073630;28;19995;-86
2021/07/02 07:12:13;;;;;;;;;;;23.10;99.90;;;;;;5071870;28;19930;-85
2021/07/02 07:14:38;;;;;;;;;;;23.10;99.90;;;;;;5072030;28;19915;-85
2021/07/02 07:17:09;;;;;;;;;;;23.30;99.90;;;;;;5072185;28;19943;-85
2021/07/02 07:19:35;;;;;;;;;;;23.40;99.90;;;;;;5072132;28;19935;-85
2021/07/02 07:22:01;;;;;;;;;;;23.20;99.90;;;;;;5072014;28;19908;-85
2021/07/02 07:24:26;;;;;;;;;;;23.00;99.90;;;;;;5071812;28;19995;-86
2021/07/02 07:26:52;;;;;;;;;;;23.20;99.90;;;;;;5071481;28;20015;-86
2021/07/02 07:29:17;;;;;;;;;;;23.50;99.90;;;;;;5071900;28;19916;-85
2021/07/02 07:31:43;;;;;;;;;;;23.80;99.90;;;;;;5071793;28;19916;-85
2021/07/02 07:34:08;;;;;;;;;;;23.30;99.90;;;;;;5071647;28;19957;-85
2021/07/02 07:36:36;;;;;;;;;;;23.40;99.90;;;;;;5071790;28;20329;-86
2021/07/02 07:39:02;;;;;;;;;;;23.20;99.90;;;;;;5072973;28;20417;-85
2021/07/02 07:41:27;;;;;;;;;;;23.70;99.90;;;;;;5071557;28;20008;-86
2021/07/02 07:43:53;;;;;;;;;;;23.90;99.90;;;;;;5072498;28;19919;-85
2021/07/02 07:46:20;;;;;;;;;;;23.70;99.90;;;;;;5071898;28;19908;-85
2021/07/02 07:48:45;;;;;;;;;;;23.40;99.90;;;;;;5071494;28;19920;-85
2021/07/02 07:53:39;;;;;;;;;;;23.40;99.90;;;;;;5072561;28;19909;-85
2021/07/02 07:56:04;;;;;;;;;;;24.10;99.90;;;;;;5071212;28;19908;-85
2021/07/02 07:58:30;;;;;;;;;;;24.10;99.90;;;;;;5071430;28;19954;-85
2021/07/02 08:00:55;;;;;;;;;;;23.90;99.90;;;;;;5071426;28;19908;-85
2021/07/02 08:03:21;;;;;;;;;;;24.00;99.90;;;;;;5071064;28;20035;-85
2021/07/02 08:05:46;;;;;;;;;;;24.20;99.90;;;;;;5071344;28;20434;-85
2021/07/02 08:08:13;;;;;;;;;;;24.50;99.90;;;;;;5071433;28;19962;-85
2021/07/02 08:10:39;;;;;;;;;;;24.30;99.90;;;;;;5071141;28;19908;-85
2021/07/02 08:13:04;;;;;;;;;;;23.80;99.90;;;;;;5071017;28;19909;-85
2021/07/02 08:15:30;;;;;;;;;;;23.70;99.90;;;;;;5071131;28;19962;-84
2021/07/02 08:17:55;;;;;;;;;;;24.00;99.90;;;;;;5071181;28;19915;-86
2021/07/02 08:20:21;;;;;;;;;;;23.50;99.90;;;;;;5071034;28;19915;-85
2021/07/02 08:22:46;;;;;;;;;;;23.40;99.90;;;;;;5071073;28;20386;-85
2021/07/02 08:25:12;;;;;;;;;;;23.80;99.90;;;;;;5071075;28;19920;-85
2021/07/02 08:30:21;;;;;;;;;;;24.50;99.90;;;;;;5072314;28;19915;-85
2021/07/02 08:32:47;;;;;;;;;;;24.80;99.90;;;;;;5071080;28;19912;-85
2021/07/02 08:35:14;;;;;;;;;;;25.10;99.90;;;;;;5070988;28;20003;-85
2021/07/02 08:37:40;;;;;;;;;;;25.20;99.90;;;;;;5072971;28;19909;-85
2021/07/02 08:40:06;;;;;;;;;;;25.10;99.90;;;;;;5075002;28;20003;-85
2021/07/02 08:42:31;;;;;;;;;;;25.00;99.90;;;;;;5075019;28;19915;-85
2021/07/02 08:44:57;;;;;;;;;;;24.90;99.90;;;;;;5074882;28;20282;-85
2021/07/02 08:47:22;;;;;;;;;;;24.40;99.90;;;;;;5074987;28;20264;-86
2021/07/02 08:49:48;;;;;;;;;;;24.60;99.90;;;;;;5076199;28;19910;-86
2021/07/02 08:52:14;;;;;;;;;;;25.00;99.90;;;;;;5074909;28;19909;-85
2021/07/02 08:54:40;;;;;;;;;;;25.10;99.90;;;;;;5074898;28;20003;-86
2021/07/02 08:57:05;;;;;;;;;;;25.10;99.90;;;;;;5075876;28;20256;-86
2021/07/02 08:59:30;;;;;;;;;;;25.20;99.90;;;;;;5075010;28;19909;-85
2021/07/02 09:01:56;;;;;;;;;;;25.20;99.90;;;;;;5074518;28;19981;-85
2021/07/02 09:04:34;;;;;;;;;;;25.20;99.90;;;;;;5074875;28;20371;-86
2021/07/02 09:06:59;;;;;;;;;;;25.50;99.60;;;;;;5074700;28;20380;-85
2021/07/02 09:09:26;;;;;;;;;;;25.70;98.10;;;;;;5074937;28;19916;-86
2021/07/02 09:12:04;;;;;;;;;;;26.00;98.80;;;;;;5074750;28;19999;-85
2021/07/02 09:14:30;;;;;;;;;;;25.70;98.70;;;;;;5074516;28;19916;-86
2021/07/02 09:17:06;;;;;;;;;;;25.90;99.80;;;;;;5074525;28;19908;-85
2021/07/02 09:19:35;;;;;;;;;;;26.10;99.90;;;;;;5074791;28;20405;-85
2021/07/02 09:22:19;;;;;;;;;;;26.50;99.20;;;;;;5074255;28;19970;-85
2021/07/02 09:24:46;;;;;;;;;;;26.30;99.90;;;;;;5074064;28;19916;-85
2021/07/02 09:27:26;;;;;;;;;;;25.80;99.70;;;;;;5074269;28;19909;-85
2021/07/02 09:30:03;;;;;;;;;;;25.50;99.90;;;;;;5074237;28;19969;-85
2021/07/02 09:32:30;;;;;;;;;;;26.00;98.00;;;;;;5074133;28;19912;-85
2021/07/02 09:34:58;;;;;;;;;;;26.00;98.10;;;;;;5073836;28;19908;-85
2021/07/02 09:37:29;;;;;;;;;;;25.50;98.70;;;;;;5073892;28;19965;-85
2021/07/02 09:39:54;;;;;;;;;;;24.40;99.90;;;;;;5074018;28;19909;-86
2021/07/02 09:42:27;;;;;;;;;;;24.70;99.90;;;;;;5073805;28;19953;-85
2021/07/02 09:45:08;;;;;;;;;;;25.50;99.90;;;;;;5075031;28;20065;-86
2021/07/02 09:47:34;;;;;;;;;;;24.80;99.30;;;;;;5073673;28;19915;-86
2021/07/02 09:50:35;;;;;;;;;;;23.80;99.10;;;;;;5073586;28;19961;-85
2021/07/02 09:53:05;;;;;;;;;;;24.00;99.90;;;;;;4976790;28;19961;-85
2021/07/02 09:55:32;;;;;;;;;;;25.30;99.30;;;;;;5055350;28;20021;-85
2021/07/02 09:58:04;;;;;;;;;;;24.90;99.70;;;;;;5074798;28;19915;-85
2021/07/02 10:00:31;;;;;;;;;;;24.40;99.60;;;;;;5073681;28;19947;-85
2021/07/02 10:02:57;;;;;;;;;;;24.10;99.90;;;;;;5073475;28;19939;-86
2021/07/02 10:05:24;;;;;;;;;;;24.30;98.00;;;;;;5074807;28;19908;-85
2021/07/02 10:08:00;;;;;;;;;;;25.10;99.90;;;;;;5073454;28;19908;-86
2021/07/02 10:10:26;;;;;;;;;;;25.10;99.40;;;;;;5073440;28;19931;-86
2021/07/02 10:12:53;;;;;;;;;;;24.20;99.90;;;;;;5074280;28;19916;-85
2021/07/02 10:15:19;;;;;;;6.25;4.03;;;23.80;99.90;;;;;;5072849;28;19934;-85
2021/07/02 10:17:46;;;;;;;6.43;4.10;;;23.70;99.90;;;;;;5072901;28;20403;-85
2021/07/02 10:20:13;;;;;;;6.43;4.18;;;23.70;99.90;;;;;;5072986;28;20510;-85
2021/07/02 10:22:41;;;;;;;5.10;3.78;;;23.60;99.90;;;;;;5073953;28;20025;-85
2021/07/02 10:25:08;;;;;;;7.65;4.68;;;23.40;99.90;;;;;;5072671;28;20094;-85
2021/07/02 10:27:34;;;;;;;6.97;3.95;;;23.30;99.90;;;;;;5072414;28;20048;-85
2021/07/02 10:30:01;;;;;;;4.07;3.33;;;23.60;99.90;;;;;;5073044;28;20043;-85
2021/07/02 10:32:27;;;;;;;5.68;4.05;;;23.80;99.90;;;;;;5072527;28;20120;-85
2021/07/02 10:34:53;;;;;;;5.65;3.70;;;23.90;99.90;;;;;;5073864;28;20036;-86
2021/07/02 10:37:18;;;;;;;8.73;4.40;;;24.00;99.90;;;;;;5072501;28;20419;-85
2021/07/02 10:39:45;;;;;;;7.93;4.20;;;23.70;99.90;;;;;;5073568;28;20036;-85
2021/07/02 10:42:13;;;;;;;9.90;4.20;;;23.40;99.90;;;;;;5072415;28;20024;-85
2021/07/02 10:44:59;;;;;;;5.13;4.03;;;23.10;99.90;;;;;;5072143;28;20480;-86
2021/07/02 10:47:26;;;;;;;5.47;4.40;;;23.90;99.90;;;;;;5072305;28;20317;-85
2021/07/02 10:49:53;;;;;;;;;;;24.80;99.90;;;;;;5073008;28;20119;-85
2021/07/02 10:52:21;;;;;;;6.55;4.22;;;24.70;99.90;;;;;;5075856;28;19912;-85
2021/07/02 10:54:48;;;;;;;6.25;4.72;;;24.40;99.90;;;;;;5075221;28;20119;-85
2021/07/02 10:57:17;;;;;;;5.50;3.83;;;24.20;99.90;;;;;;5074137;28;20024;-85
2021/07/02 10:59:45;;;;;;;6.65;3.63;;;24.00;99.90;;;;;;5074608;28;20032;-85
2021/07/02 11:02:14;;;;;;;4.78;3.90;;;23.80;99.90;;;;;;5074224;28;20086;-86
2021/07/02 11:04:47;;;;;;;4.93;3.72;;;23.80;99.90;;;;;;5074401;28;20032;-84
2021/07/02 11:07:22;;;;;;;6.55;4.38;;;24.20;99.90;;;;;;5075135;28;20029;-85
2021/07/02 11:09:48;;;;;;;;;;;25.20;99.90;;;;;;5075297;28;20074;-85
2021/07/02 11:12:14;;;;;;;;;;;25.20;99.40;;;;;;5074242;28;19926;-84
2021/07/02 11:14:55;;;;;;;;;;;24.90;99.90;;;;;;5074651;28;19911;-85
2021/07/02 11:17:24;;;;;;;;;;;25.90;99.90;;;;;;5074627;28;19915;-86
2021/07/02 11:20:05;;;;;;;;;;;26.70;99.90;;;;;;5075932;28;19912;-84
2021/07/02 11:22:32;;;;;;;;;;;27.50;99.90;;;;;;5076117;28;19912;-85
2021/07/02 11:25:16;;;;;;;;;;;26.60;97.70;;;;;;5075771;28;19904;-85
2021/07/02 11:27:44;;;;;;;;;;;25.50;99.90;;;;;;5074544;28;20271;-85
2021/07/02 11:30:33;;;;;;;;;;;24.80;99.60;;;;;;5075836;28;19905;-85
2021/07/02 11:33:03;;;;;;;;;;;24.30;99.90;;;;;;5073750;28;19995;-85
2021/07/02 11:35:30;;;;;;;;;;;23.60;99.90;;;;;;5075361;28;19904;-86
2021/07/02 11:37:58;;;;;;;;;;;23.50;99.90;;;;;;5073164;28;19904;-85
2021/07/02 11:40:25;;;;;;;;;;;23.80;99.90;;;;;;5072895;28;20383;-85
2021/07/02 11:42:50;;;;;;;;;;;25.10;99.90;;;;;;5072137;28;19916;-84
2021/07/02 11:45:16;;;;;;;;;;;25.30;99.90;;;;;;5073266;28;20291;-85
2021/07/02 11:47:41;;;;;;;;;;;25.30;99.90;;;;;;5073156;28;19911;-85
2021/07/02 11:50:07;;;;;;;;;;;25.60;99.80;;;;;;5075670;28;19911;-85
2021/07/02 11:52:35;;;;;;;;;;;25.60;99.90;;;;;;5075084;28;19951;-85
2021/07/02 11:55:01;;;;;;;;;;;25.10;99.90;;;;;;5074555;28;20003;-84
2021/07/02 11:57:26;;;;;;;;;;;24.60;99.90;;;;;;5071829;28;20009;-84
2021/07/02 11:59:55;;;;;;;;;;;23.90;99.90;;;;;;5072739;28;19919;-85
2021/07/02 12:02:21;;;;;;;;;;;23.60;99.90;;;;;;5070962;28;19920;-85
2021/07/02 12:04:46;;;;;;;;;;;23.30;99.90;;;;;;5071046;28;20019;-86
2021/07/02 12:07:12;;;;;;;;;;;23.30;99.90;;;;;;5071052;28;19912;-85
2021/07/02 12:09:42;;;;;;;;;;;23.40;99.90;;;;;;5071365;28;19909;-85
2021/07/02 12:12:07;;;;;;;;;;;23.60;99.90;;;;;;5070945;28;19909;-85
2021/07/02 12:14:39;;;;;;;;;;;23.80;99.90;;;;;;5071536;28;20338;-85
2021/07/02 12:17:05;;;;;;;;;;;24.20;99.90;;;;;;5071485;28;19954;-85
2021/07/02 12:19:31;;;;;;;;;;;24.90;99.90;;;;;;5071174;28;19912;-85
2021/07/02 12:22:06;;;;;;;;;;;25.60;99.90;;;;;;5071194;28;19909;-85
2021/07/02 12:24:51;;;;;;;;;;;25.70;99.90;;;;;;5071130;28;20291;-85
2021/07/02 12:27:22;;;;;;;;;;;25.30;99.90;;;;;;5070754;28;19908;-84
2021/07/02 12:29:52;;;;;;;;;;;24.60;99.90;;;;;;5071088;28;20003;-84
2021/07/02 12:32:17;;;;;;;;;;;24.00;99.90;;;;;;5071055;28;19959;-85
2021/07/02 12:34:44;;;;;;;;;;;24.20;99.90;;;;;;5072389;28;20403;-84
2021/07/02 12:37:11;;;;;;;;;;;25.10;99.90;;;;;;5071625;28;19998;-84
2021/07/02 12:39:44;;;;;;;;;;;26.20;99.60;;;;;;5071018;28;19909;-84
2021/07/02 12:42:10;;;;;;;;;;;26.80;99.90;;;;;;5070936;28;20371;-85
2021/07/02 12:44:37;;;;;;;;;;;26.90;99.80;;;;;;5070637;28;20394;-84
2021/07/02 12:47:06;;;;;;;;;;;26.30;99.80;;;;;;5071027;28;19950;-84
2021/07/02 12:49:42;;;;;;;;;;;26.50;99.90;;;;;;5070978;28;19916;-85
2021/07/02 12:54:47;;;;;;;;;;;25.90;99.90;;;;;;5072828;28;19915;-86
2021/07/02 12:57:30;;;;;;;;;;;25.60;99.90;;;;;;5072491;28;20048;-85
2021/07/02 12:59:57;;;;;;;;;;;25.20;99.90;;;;;;5071108;28;20355;-85
2021/07/02 13:02:29;;;;;;;;;;;24.60;99.90;;;;;;5070635;28;19921;-85
2021/07/02 13:04:55;;;;;;;;;;;24.20;99.90;;;;;;5071975;28;19920;-86
2021/07/02 13:07:21;;;;;;;;;;;24.30;99.90;;;;;;5071003;28;19909;-86
2021/07/02 13:09:46;;;;;;;;;;;25.00;99.90;;;;;;5070644;28;19948;-85
2021/07/02 13:12:14;;;;;;;6.60;4.77;;;25.40;99.90;;;;;;5070177;28;19912;-84
2021/07/02 13:14:42;;;;;;;6.65;3.92;;;25.20;99.90;;;;;;5070249;28;20025;-85
2021/07/02 13:17:09;;;;;;;4.43;4.03;;;24.60;99.90;;;;;;5070202;28;20032;-86
2021/07/02 13:19:35;;;;;;;;;;;24.40;99.90;;;;;;5070436;28;20494;-85
2021/07/02 13:22:15;;;;;;;5.20;4.00;;;24.00;99.90;;;;;;5069901;28;19905;-85
2021/07/02 13:24:42;;;;;;;5.38;4.40;;;23.90;99.90;;;;;;5073417;28;20029;-86
2021/07/02 13:27:08;;;;;;;;;;;23.90;99.90;;;;;;5074408;28;20074;-85
2021/07/02 13:29:34;;;;;;;4.90;4.25;;;24.20;99.90;;;;;;5073833;28;19908;-85
2021/07/02 13:31:59;;;;;;;6.40;3.77;;;24.50;99.90;;;;;;5074258;28;20059;-85
2021/07/02 13:34:39;;;;;;;6.00;4.40;;;24.30;99.90;;;;;;5076664;28;20027;-85
2021/07/02 13:37:04;;;;;;;4.78;3.58;;;24.00;99.90;;;;;;5075337;28;20051;-85
2021/07/02 13:39:33;;;;;;;6.47;4.57;;;23.80;99.90;;;;;;5075535;28;20024;-85
2021/07/02 13:42:07;;;;;;;6.38;4.45;;;23.90;99.90;;;;;;5076174;28;20077;-85
2021/07/02 13:44:35;;;;;;;6.10;4.03;;;24.20;99.90;;;;;;5075621;28;20031;-84
2021/07/02 13:47:12;;;;;;;6.50;3.97;;;25.00;99.90;;;;;;5076196;28;20024;-85
2021/07/02 13:49:40;;;;;;;5.05;3.83;;;25.70;99.90;;;;;;5077983;28;20067;-85
2021/07/02 13:52:07;;;;;;;6.30;3.80;;;26.20;99.90;;;;;;5077552;28;20016;-86
2021/07/02 13:54:34;;;;;;;4.90;3.67;;;26.50;99.70;;;;;;5075800;28;20109;-85
2021/07/02 13:57:00;;;;;;;5.28;4.35;;;26.10;99.90;;;;;;5078806;28;20106;-85
2021/07/02 13:59:26;;;;;;;4.18;3.55;;;25.20;99.90;;;;;;5078393;28;20032;-85
2021/07/02 14:01:52;;;;;;;4.37;3.70;;;24.20;99.90;;;;;;5076235;28;20036;-86
2021/07/02 14:04:17;;;;;;;;;;;23.80;99.90;;;;;;5075784;28;20298;-85
2021/07/02 14:06:43;;;;;;;;;;;23.50;99.90;;;;;;5073722;28;20281;-85
2021/07/02 14:09:08;;;;;;;;;;;23.70;99.90;;;;;;5074818;28;19904;-86
2021/07/02 14:11:35;;;;;;;4.43;3.80;;;23.80;99.90;;;;;;5073325;28;19905;-85
2021/07/02 14:14:02;;;;;;;4.55;4.00;;;23.70;99.90;;;;;;5073352;28;20025;-85
2021/07/02 14:16:28;;;;;;;4.45;3.72;;;24.20;99.90;;;;;;5073155;28;20040;-85
2021/07/02 14:18:54;;;;;;;4.20;3.80;;;24.80;99.90;;;;;;5073440;28;20024;-85
2021/07/02 14:21:19;;;;;;;7.43;4.10;;;24.90;99.90;;;;;;5074242;28;20024;-85
2021/07/02 14:23:46;;;;;;;7.57;3.63;;;24.90;99.90;;;;;;5073737;28;20444;-85
2021/07/02 14:26:11;;;;;;;;;;;25.10;99.90;;;;;;5073933;28;20025;-85
2021/07/02 14:28:37;;;;;;;5.15;3.80;;;25.60;99.90;;;;;;5073307;28;20287;-85
2021/07/02 14:31:04;;;;;;;5.20;3.67;;;25.60;99.90;;;;;;5074822;28;20024;-85
2021/07/02 14:33:30;;;;;;;;;;;25.50;99.90;;;;;;5073865;28;19915;-85
2021/07/02 14:35:56;;;;;;;;;;;25.60;99.90;;;;;;5072573;28;19916;-85
2021/07/02 14:38:21;;;;;;;;;;;26.10;99.90;;;;;;5073367;28;19908;-84
2021/07/02 14:40:47;;;;;;;;;;;26.20;99.90;;;;;;5073825;28;19908;-84
2021/07/02 14:43:13;;;;;;;;;;;26.20;99.90;;;;;;5072703;28;19916;-85
2021/07/02 14:45:38;;;;;;;;;;;25.70;99.90;;;;;;5074600;28;19909;-85
2021/07/02 14:48:04;;;;;;;;;;;24.90;99.90;;;;;;5075965;28;19916;-84
2021/07/02 14:50:29;;;;;;;;;;;24.20;99.90;;;;;;5074791;28;20003;-85
2021/07/02 14:52:55;;;;;;;;;;;23.70;99.90;;;;;;5072169;28;20003;-85
2021/07/02 14:55:20;;;;;;;;;;;23.50;99.90;;;;;;5072535;28;19930;-84
2021/07/02 14:57:46;;;;;;;;;;;23.30;99.90;;;;;;5072541;28;19909;-85
2021/07/02 15:00:12;;;;;;;;;;;23.30;99.90;;;;;;5073870;28;19908;-85
2021/07/02 15:02:37;;;;;;;;;;;23.40;99.90;;;;;;5073255;28;19917;-84
2021/07/02 15:05:03;;;;;;;;;;;23.50;99.90;;;;;;5073564;28;19916;-84
2021/07/02 15:07:28;;;;;;;;;;;23.70;99.90;;;;;;5073708;28;20286;-84
2021/07/02 15:09:54;;;;;;;;;;;23.80;99.90;;;;;;5072247;28;20363;-85
2021/07/02 15:12:20;;;;;;;;;;;24.10;99.90;;;;;;5075009;28;19917;-85
2021/07/02 15:14:46;;;;;;;;;;;24.50;99.90;;;;;;5072042;28;19912;-85
2021/07/02 15:17:11;;;;;;;;;;;24.50;99.90;;;;;;5072189;28;20401;-84
2021/07/02 15:19:37;;;;;;;;;;;24.20;99.90;;;;;;5073177;28;19908;-84
2021/07/02 15:22:02;;;;;;;;;;;23.90;99.90;;;;;;5071789;28;20435;-84
2021/07/02 15:24:28;;;;;;;;;;;23.70;99.90;;;;;;5071801;28;19912;-86
2021/07/02 15:26:54;;;;;;;;;;;23.50;99.90;;;;;;5072149;28;20402;-85
2021/07/02 15:29:19;;;;;;;;;;;24.20;99.90;;;;;;5071943;28;19958;-84
2021/07/02 15:32:03;;;;;;;;;;;25.10;99.90;;;;;;5071670;28;20329;-84
2021/07/02 15:34:29;;;;;;;;;;;25.40;99.90;;;;;;5072270;28;20363;-84
2021/07/02 15:36:55;;;;;;;;;;;25.60;99.90;;;;;;5071895;28;20004;-86
2021/07/02 15:39:21;;;;;;;;;;;25.50;99.80;;;;;;5071646;28;19909;-84
2021/07/02 15:41:46;;;;;;;;;;;25.40;99.90;;;;;;5072029;28;19909;-85
2021/07/02 15:44:12;;;;;;;;;;;25.60;99.20;;;;;;5071938;28;19969;-84
2021/07/02 15:46:37;;;;;;;;;;;25.60;99.40;;;;;;5072145;28;19909;-84
2021/07/02 15:49:03;;;;;;;;;;;25.70;98.30;;;;;;5071694;28;20009;-85
2021/07/02 15:51:29;;;;;;;;;;;25.70;98.00;;;;;;5072783;28;19909;-84
2021/07/02 15:53:55;;;;;;;;;;;25.70;99.40;;;;;;5071356;28;20387;-85
2021/07/02 15:56:20;;;;;;;;;;;25.60;99.10;;;;;;5072868;28;19918;-84
2021/07/02 15:58:46;;;;;;;;;;;25.70;97.90;;;;;;5071371;28;20003;-85
2021/07/02 16:01:12;;;;;;;;;;;25.60;99.30;;;;;;5071455;28;19908;-85
2021/07/02 16:03:37;;;;;;;;;;;25.70;99.30;;;;;;5071029;28;20368;-85
2021/07/02 16:06:03;;;;;;;;;;;25.70;99.70;;;;;;5073112;28;19947;-85
2021/07/02 16:08:28;;;;;;;;;;;25.60;99.90;;;;;;5072640;28;19959;-84
2021/07/02 16:10:54;;;;;;;;;;;25.60;99.30;;;;;;5071414;28;19908;-84
2021/07/02 16:13:19;;;;;;;;;;;25.60;99.70;;;;;;5070891;28;19908;-85
2021/07/02 16:15:45;;;;;;;;;;;25.50;99.90;;;;;;5071285;28;19923;-84
2021/07/02 16:18:11;;;;;;;;;;;25.60;99.90;;;;;;5071682;28;19914;-85
2021/07/02 16:20:36;;;;;;;;;;;25.50;99.10;;;;;;5071432;28;19974;-84
2021/07/02 16:23:03;;;;;;;;;;;25.50;99.10;;;;;;5072041;28;19913;-84
2021/07/02 16:25:29;;;;;;;;;;;25.40;99.90;;;;;;5072448;28;19908;-84
2021/07/02 16:27:56;;;;;;;;;;;25.20;99.50;;;;;;5072064;28;19909;-85
2021/07/02 16:30:22;;;;;;;;;;;24.90;99.90;;;;;;5073730;28;19908;-85
2021/07/02 16:32:51;;;;;;;;;;;24.50;99.90;;;;;;5073356;28;19909;-85
2021/07/02 16:35:16;;;;;;;;;;;24.30;99.90;;;;;;5070883;28;19912;-86
2021/07/02 16:37:42;;;;;;;;;;;24.30;99.90;;;;;;5072315;28;19958;-85
2021/07/02 16:40:07;;;;;;;;;;;24.30;99.90;;;;;;5071943;28;19909;-84
2021/07/02 16:42:36;;;;;;;;;;;24.10;99.90;;;;;;5072680;28;20405;-84
2021/07/02 16:45:02;;;;;;;;;;;23.90;99.90;;;;;;5075009;28;19919;-84
2021/07/02 16:47:28;;;;;;;;;;;24.00;99.90;;;;;;5073930;28;20002;-84
2021/07/02 16:49:53;;;;;;;;;;;24.00;99.90;;;;;;5073577;28;20374;-85
2021/07/02 16:52:23;;;;;;;;;;;23.80;99.90;;;;;;5075138;28;19997;-85
2021/07/02 16:54:48;;;;;;;;;;;23.50;99.90;;;;;;5072840;28;19916;-84
2021/07/02 16:57:14;;;;;;;;;;;23.20;99.90;;;;;;5075564;28;19908;-85
2021/07/02 16:59:39;;;;;;;;;;;23.00;99.90;;;;;;5078133;28;19909;-85
2021/07/02 17:02:05;;;;;;;;;;;22.80;99.90;;;;;;5078488;28;19963;-86
2021/07/02 17:04:30;;;;;;;;;;;22.80;99.90;;;;;;5077192;28;20007;-84
2021/07/02 17:06:56;;;;;;;;;;;22.80;99.90;;;;;;5077452;28;19958;-85
2021/07/02 17:09:22;;;;;;;;;;;22.90;99.90;;;;;;5078577;28;19950;-85
2021/07/02 17:11:50;;;;;;;;;;;22.90;99.90;;;;;;5078313;28;19913;-84
2021/07/02 17:14:16;;;;;;;;;;;22.80;99.90;;;;;;5078378;28;20279;-85
2021/07/02 17:16:43;;;;;;;;;;;22.80;99.90;;;;;;5077839;28;19908;-84
2021/07/02 17:19:12;;;;;;;;;;;22.90;99.90;;;;;;5079326;28;19908;-85
2021/07/02 17:21:38;;;;;;;;;;;23.00;99.90;;;;;;5078441;28;19991;-85
2021/07/02 17:24:03;;;;;;;;;;;23.20;99.90;;;;;;5081687;28;19962;-86
2021/07/02 17:26:29;;;;;;;;;;;23.50;99.90;;;;;;5080761;28;19908;-84
2021/07/02 17:28:55;;;;;;;;;;;23.60;99.90;;;;;;5076965;28;19962;-84
2021/07/02 17:31:20;;;;;;;;;;;23.30;99.90;;;;;;5076043;28;19908;-85
2021/07/02 17:33:46;;;;;;;;;;;23.00;99.90;;;;;;5076265;28;19914;-86
2021/07/02 17:36:12;;;;;;;;;;;22.90;99.90;;;;;;5081242;28;19909;-85
2021/07/02 17:38:37;;;;;;;;;;;22.80;99.90;;;;;;5082106;28;19920;-84